East Pitcairn, New York
Current Conditions -  °F | °C
As of 7:58 PM on Sunday 23 Nov 2014 (Local Time) from KGTB Reporting Station
Broken Clouds Broken Clouds  
Wind Chill: 35°   Ceiling: 20000
Heat Index: 43°   Visibility: 10mi
Dew Point: 37°   Wind: 18mph
Humidity: 78%   Direction: 150°SSE
Pressure: 29.9"   Gusts: 23mph
Location:  44.1447°N, 75.2952°W
Report Text: KGTB 240058Z AUTO 15016G20KT 10SM SCT100 BKN200 06/03 A2990 RMK AO2 SLP131 T00630027
Loading
Personal Weather Stations






























Interactive Weather Map New forecast layout! Learn more

10-Day Weather Forecast

Advertisements
Track Severe Weather on mobile